Sturdies Bay, Canada
Current Conditions -  °F | °C
As of 4:00 PM on Monday 20 Oct 2014 (Local Time) from CYYJ Reporting Station
Broken Clouds Broken Clouds  
Wind Chill: 61°   Ceiling: 11000
Heat Index: 61°   Visibility: 20mi
Dew Point: 52°   Wind: 10mph
Humidity: 72%   Direction: 130°SE
Pressure: 29.71"   Gusts: NA
Location:  48.88°N, 123.32°W
Report Text: CYYJ 202300Z 13009KT 20SM FEW055 BKN110 16/11 A2971 RMK SC2AC4 CU ASOCTD SLP062 DENSITY ALT 400FT
Loading
Personal Weather Stations






























Interactive Weather Map
Tropical Storm Tracking
New forecast layout! Learn more

10-Day Weather Forecast

Advertisements
Track Severe Weather on mobile